EPWAEPMO

Guest
Details From EPWA - WARSZAWA Okecie
To EPMO - MODLIN
Flight Number -
Tags generated
Created
Modified
Stats Distance 24 nm / 45 km
Max Altitude 2,400 ft / 732 m
Waypoints 3
Social Downloads 0
Likes 0
Share VATSIM

Download

Looking for another format? Having issues loading an existing format? Contact us
Advertisement - Login to hide

Notes

Basic altitude profile: - Ascent Rate: 2500ft/min - Ascent Speed: 250kts - Cruise Altitude: 35000ft - Cruise Speed: 420kts - Descent Rate: 1500ft/min - Descent Speed: 250kts Options: - Use NATs: yes - Use PACOTS: yes - Use low airways: yes - Use high airways: yes

Route

EPWA WAR EPMO

ID Type Via Altitude Latitude Longitude Leg Dist Tot Dist Heading (true) Name
O EPWA APT - 0 ft / 0 m 52.16509˚ 20.96692˚ - 0 nm - WARSZAWA Okecie
WAR VOR - 2,400 ft / 732 m 52.25914˚ 20.65710˚ 12 nm 12 nm 296° / 296° ZABOROWEK VOR-DME
O EPMO APT - 0 ft / 0 m 52.45111˚ 20.65178˚ 11 nm 24 nm 359° / 359° MODLIN

Altitude Profile

Advertisement - Login to hide

EPWA

Details ICAO EPWA (WAW)
Name WARSZAWA Okecie
Region Poland
Timezone Europe/Warsaw (UTC+1.0)
Stats Elevation 328 ft / 100 m (AMSL)
Location 52.165091° 20.966923°
Runways 2
Magnetic Variation 5.803° E

METAR

EPWA 181300Z 33005KT 310V010 4000 BR BKN006 00/M01 Q1025 NOSIG

Decode

TAF

TAF EPWA 181130Z 1812/1912 35004KT 3500 BR BKN005 BECMG 1812/1814 6000 BKN012 TEMPO 1817/1909 4000 BR BKN007 PROB40 TEMPO 1900/1909 1500 BR BKN004

Decode

Departure Runways

ID Width Length Bearing (true) Bearing (mag) Surface Threshold Offset Overrun Length
11 164 ft / 50 m 9,163 ft / 2,793 m 114.64° 108.84° Asphalt 0 ft / 0 m 476 ft / 145 m
15 197 ft / 60 m 12,112 ft / 3,692 m 151.85° 146.05° Asphalt 0 ft / 0 m 0 ft / 0 m
29 164 ft / 50 m 9,163 ft / 2,793 m 294.67° 288.87° Asphalt 1,608 ft / 490 m 0 ft / 0 m
33 197 ft / 60 m 12,112 ft / 3,692 m 331.87° 326.07° Asphalt 0 ft / 0 m 0 ft / 0 m

EPMO

Details ICAO EPMO (WMI)
Name MODLIN
Region Poland
Timezone Europe/Warsaw (UTC+1.0)
Stats Elevation 341 ft / 104 m (AMSL)
Location 52.451110° 20.651778°
Runways 1
Magnetic Variation 5.768° E

METAR

EPMO 181300Z 31004KT 1400 R08/2000U BR OVC003 M01/M01 Q1025

Decode

TAF

TAF EPMO 181130Z 1812/1912 35004KT 1300 BR BKN003 TEMPO 1813/1817 4000 BR BKN010 PROB40 TEMPO 1820/1909 0300 FZFG OVC001 BECMG 1908/1911 6000 BKN014

Decode

Destination Runways

ID Width Length Bearing (true) Bearing (mag) Surface Threshold Offset Overrun Length
08 197 ft / 60 m 8,188 ft / 2,496 m 81.96° 76.19° Asphalt 0 ft / 0 m 0 ft / 0 m
26 197 ft / 60 m 8,188 ft / 2,496 m 261.99° 256.22° Asphalt 0 ft / 0 m 0 ft / 0 m

Popular Alternatives